Time,TemperatureF,DewpointF,PressureIn,WindDirection,WindDirectionDegrees,WindSpeedMPH,WindSpeedGustMPH,Humidity,HourlyPrecipIn,Conditions,Clouds,dailyrainin,SoftwareType,DateUTC
2013-09-26 00:01:00,63.9,53.5,29.97,SE,141,0.0,0.0,69,0.00,,---,0.00,VWS V14.01,2013-09-26 04:01:00,
2013-09-26 00:02:00,63.9,53.5,29.97,SE,141,0.0,0.0,69,0.00,,---,0.00,VWS V14.01,2013-09-26 04:02:00,
2013-09-26 00:03:00,63.9,53.5,29.97,SE,141,0.0,0.0,69,0.00,,---,0.00,VWS V14.01,2013-09-26 04:03:00,
2013-09-26 00:05:00,63.9,53.5,29.97,SE,141,0.0,0.0,69,0.00,,---,0.00,VWS V14.01,2013-09-26 04:05:00,
2013-09-26 00:11:00,63.7,53.3,29.97,SE,141,0.0,0.0,69,0.00,,---,0.00,VWS V14.01,2013-09-26 04:11:00,
2013-09-26 00:16:00,63.5,53.2,29.97,SE,141,0.0,0.0,69,0.00,,---,0.00,VWS V14.01,2013-09-26 04:16:00,
2013-09-26 00:22:00,63.5,53.2,29.97,SE,141,0.0,0.0,69,0.00,,---,0.00,VWS V14.01,2013-09-26 04:22:00,
2013-09-26 00:28:00,63.3,53.0,29.97,SE,141,0.0,0.0,69,0.00,,---,0.00,VWS V14.01,2013-09-26 04:28:00,
2013-09-26 00:30:00,63.3,53.0,29.97,SE,141,0.0,0.0,69,0.00,,---,0.00,VWS V14.01,2013-09-26 04:30:00,
2013-09-26 00:35:00,63.1,52.8,29.97,SE,141,0.0,0.0,69,0.00,,---,0.00,VWS V14.01,2013-09-26 04:35:00,
2013-09-26 00:40:00,63.1,52.8,29.97,SE,141,0.0,0.0,69,0.00,,---,0.00,VWS V14.01,2013-09-26 04:40:00,
2013-09-26 00:46:00,63.0,53.0,29.97,SE,141,0.0,0.0,70,0.00,,---,0.00,VWS V14.01,2013-09-26 04:46:00,
2013-09-26 00:52:00,62.8,52.9,29.97,SE,141,0.0,0.0,70,0.00,,---,0.00,VWS V14.01,2013-09-26 04:52:00,
2013-09-26 00:57:00,62.6,52.7,29.97,SE,141,0.0,0.0,70,0.00,,---,0.00,VWS V14.01,2013-09-26 04:57:00,
2013-09-26 01:02:00,62.4,52.9,29.97,SE,141,0.0,0.0,71,0.00,,---,0.00,VWS V14.01,2013-09-26 05:02:00,
2013-09-26 01:08:00,62.2,52.7,29.97,SE,141,0.0,0.0,71,0.00,,---,0.00,VWS V14.01,2013-09-26 05:08:00,
2013-09-26 01:13:00,61.9,52.8,29.97,SE,141,0.0,0.0,72,0.00,,---,0.00,VWS V14.01,2013-09-26 05:13:00,
2013-09-26 01:18:00,61.9,53.1,29.97,SE,141,0.0,0.0,73,0.00,,---,0.00,VWS V14.01,2013-09-26 05:18:00,
2013-09-26 01:24:00,61.7,53.0,29.97,SE,141,0.0,0.0,73,0.00,,---,0.00,VWS V14.01,2013-09-26 05:24:00,
2013-09-26 01:29:00,61.7,53.3,29.97,SE,141,0.0,0.0,74,0.00,,---,0.00,VWS V14.01,2013-09-26 05:29:00,
2013-09-26 01:34:00,61.3,53.4,29.97,SE,141,0.0,0.0,75,0.00,,---,0.00,VWS V14.01,2013-09-26 05:34:00,
2013-09-26 01:39:00,61.5,53.5,29.97,SE,141,0.0,0.0,75,0.00,,---,0.00,VWS V14.01,2013-09-26 05:39:00,
2013-09-26 01:44:00,61.3,53.7,29.97,SE,141,0.0,0.0,76,0.00,,---,0.00,VWS V14.01,2013-09-26 05:44:00,
2013-09-26 01:49:00,61.3,53.7,29.97,SE,141,0.0,0.0,76,0.00,,---,0.00,VWS V14.01,2013-09-26 05:49:00,
2013-09-26 01:54:00,61.2,53.9,29.97,SE,141,0.0,0.0,77,0.00,,---,0.00,VWS V14.01,2013-09-26 05:54:00,
2013-09-26 01:59:00,61.2,54.3,29.97,SE,141,0.0,0.0,78,0.00,,---,0.00,VWS V14.01,2013-09-26 05:59:00,
2013-09-26 02:04:00,61.0,54.1,29.97,SE,141,0.0,0.0,78,0.00,,---,0.00,VWS V14.01,2013-09-26 06:04:00,
2013-09-26 02:09:00,61.0,54.1,29.97,SE,141,0.0,0.0,78,0.00,,---,0.00,VWS V14.01,2013-09-26 06:09:00,
2013-09-26 02:14:00,61.0,54.1,29.97,SE,141,0.0,0.0,78,0.00,,---,0.00,VWS V14.01,2013-09-26 06:14:00,
2013-09-26 02:19:00,61.0,54.1,29.94,SE,141,0.0,0.0,78,0.00,,---,0.00,VWS V14.01,2013-09-26 06:19:00,
2013-09-26 02:24:00,61.0,54.1,29.94,SE,141,0.0,0.0,78,0.00,,---,0.00,VWS V14.01,2013-09-26 06:24:00,
2013-09-26 02:29:00,61.0,54.1,29.94,SE,141,0.0,0.0,78,0.00,,---,0.00,VWS V14.01,2013-09-26 06:29:00,
2013-09-26 02:34:00,61.0,54.1,29.94,SE,141,0.0,0.0,78,0.00,,---,0.00,VWS V14.01,2013-09-26 06:34:00,
2013-09-26 02:39:00,60.8,53.9,29.94,SE,141,0.0,0.0,78,0.00,,---,0.00,VWS V14.01,2013-09-26 06:39:00,
2013-09-26 02:44:00,60.8,54.3,29.94,SE,141,0.0,0.0,79,0.00,,---,0.00,VWS V14.01,2013-09-26 06:44:00,
2013-09-26 02:49:00,60.6,54.1,29.94,SE,141,0.0,0.0,79,0.00,,---,0.00,VWS V14.01,2013-09-26 06:49:00,
2013-09-26 02:54:00,60.6,54.4,29.94,SE,141,0.0,0.0,80,0.00,,---,0.00,VWS V14.01,2013-09-26 06:54:00,
2013-09-26 02:59:00,60.4,54.2,29.94,SE,141,0.0,0.0,80,0.00,,---,0.00,VWS V14.01,2013-09-26 06:59:00,
2013-09-26 03:04:00,60.4,54.2,29.94,SE,141,0.0,0.0,80,0.00,,---,0.00,VWS V14.01,2013-09-26 07:04:00,
2013-09-26 03:09:00,60.3,54.1,29.94,SE,141,0.0,0.0,80,0.00,,---,0.00,VWS V14.01,2013-09-26 07:09:00,
2013-09-26 03:14:00,60.1,53.9,29.94,SE,141,0.0,0.0,80,0.00,,---,0.00,VWS V14.01,2013-09-26 07:14:00,
2013-09-26 03:19:00,60.1,53.9,29.94,SE,141,0.0,0.0,80,0.00,,---,0.00,VWS V14.01,2013-09-26 07:19:00,
2013-09-26 03:24:00,60.1,53.9,29.94,SE,141,0.0,0.0,80,0.00,,---,0.00,VWS V14.01,2013-09-26 07:24:00,
2013-09-26 03:29:00,59.9,53.7,29.94,SE,141,0.0,0.0,80,0.00,,---,0.00,VWS V14.01,2013-09-26 07:29:00,
2013-09-26 03:34:00,59.9,53.7,29.94,SE,141,0.0,0.0,80,0.00,,---,0.00,VWS V14.01,2013-09-26 07:34:00,
2013-09-26 03:39:00,59.7,53.5,29.94,SE,141,0.0,0.0,80,0.00,,---,0.00,VWS V14.01,2013-09-26 07:39:00,
2013-09-26 03:44:00,59.7,53.5,29.94,SE,141,0.0,0.0,80,0.00,,---,0.00,VWS V14.01,2013-09-26 07:44:00,
2013-09-26 03:49:00,59.7,53.5,29.94,SE,141,0.0,0.0,80,0.00,,---,0.00,VWS V14.01,2013-09-26 07:49:00,
2013-09-26 03:54:00,59.7,53.5,29.94,SE,141,0.0,0.0,80,0.00,,---,0.00,VWS V14.01,2013-09-26 07:54:00,
2013-09-26 03:59:00,59.5,53.4,29.94,SE,141,0.0,0.0,80,0.00,,---,0.00,VWS V14.01,2013-09-26 07:59:00,
2013-09-26 04:04:00,59.5,53.4,29.97,SE,141,0.0,0.0,80,0.00,,---,0.00,VWS V14.01,2013-09-26 08:04:00,
2013-09-26 04:09:00,59.5,53.4,29.97,SE,141,0.0,0.0,80,0.00,,---,0.00,VWS V14.01,2013-09-26 08:09:00,
2013-09-26 04:14:00,59.5,53.4,29.97,SE,141,0.0,0.0,80,0.00,,---,0.00,VWS V14.01,2013-09-26 08:14:00,
2013-09-26 04:19:00,59.5,53.4,29.97,SE,141,0.0,0.0,80,0.00,,---,0.00,VWS V14.01,2013-09-26 08:19:00,
2013-09-26 04:24:00,59.5,53.4,29.97,SE,141,0.0,0.0,80,0.00,,---,0.00,VWS V14.01,2013-09-26 08:24:00,
2013-09-26 04:29:00,59.5,53.4,29.97,SE,141,0.0,0.0,80,0.00,,---,0.00,VWS V14.01,2013-09-26 08:29:00,
2013-09-26 04:34:00,59.5,53.4,29.97,SE,141,0.0,0.0,80,0.00,,---,0.00,VWS V14.01,2013-09-26 08:34:00,
2013-09-26 04:39:00,59.4,53.2,29.97,SE,141,0.0,0.0,80,0.00,,---,0.00,VWS V14.01,2013-09-26 08:39:00,
2013-09-26 04:44:00,59.4,53.2,29.97,SE,141,0.0,0.0,80,0.00,,---,0.00,VWS V14.01,2013-09-26 08:44:00,
2013-09-26 04:49:00,59.4,53.2,29.97,SE,141,0.0,0.0,80,0.00,,---,0.00,VWS V14.01,2013-09-26 08:49:00,
2013-09-26 04:54:00,59.5,53.4,29.97,SE,141,0.0,0.0,80,0.00,,---,0.00,VWS V14.01,2013-09-26 08:54:00,
2013-09-26 04:59:00,59.4,53.2,29.97,SE,141,0.0,0.0,80,0.00,,---,0.00,VWS V14.01,2013-09-26 08:59:00,
2013-09-26 05:04:00,59.4,53.2,29.97,SE,141,0.0,0.0,80,0.00,,---,0.00,VWS V14.01,2013-09-26 09:04:00,
2013-09-26 05:09:00,59.4,53.5,29.97,SE,141,0.0,0.0,81,0.00,,---,0.00,VWS V14.01,2013-09-26 09:09:00,
2013-09-26 05:14:00,59.4,53.5,29.97,SE,141,2.7,2.7,81,0.00,,---,0.00,VWS V14.01,2013-09-26 09:14:00,
2013-09-26 05:19:00,59.2,53.4,29.97,NNE,24,0.0,0.0,81,0.00,,---,0.00,VWS V14.01,2013-09-26 09:19:00,
2013-09-26 05:24:00,59.2,53.4,29.97,North,4,2.2,3.1,81,0.00,,---,0.00,VWS V14.01,2013-09-26 09:24:00,
2013-09-26 05:29:00,59.2,53.4,29.97,NNE,22,0.0,3.1,81,0.00,,---,0.00,VWS V14.01,2013-09-26 09:29:00,
2013-09-26 05:34:00,59.2,53.4,29.97,NNE,24,0.0,3.1,81,0.00,,---,0.00,VWS V14.01,2013-09-26 09:34:00,
2013-09-26 05:39:00,59.2,53.4,29.97,North,4,3.1,3.1,81,0.00,,---,0.00,VWS V14.01,2013-09-26 09:39:00,
2013-09-26 05:44:00,59.2,53.4,29.97,NNE,24,0.0,4.0,81,0.00,,---,0.00,VWS V14.01,2013-09-26 09:44:00,
2013-09-26 05:49:00,59.2,53.4,29.97,NNE,24,4.0,4.0,81,0.00,,---,0.00,VWS V14.01,2013-09-26 09:49:00,
2013-09-26 05:54:00,59.2,53.4,29.97,NNE,24,0.0,2.7,81,0.00,,---,0.00,VWS V14.01,2013-09-26 09:54:00,
2013-09-26 05:59:00,59.2,53.0,29.97,NNE,22,0.0,2.2,80,0.00,,---,0.00,VWS V14.01,2013-09-26 09:59:00,
2013-09-26 06:04:00,59.4,53.2,29.97,NNE,22,2.7,3.1,80,0.00,,---,0.00,VWS V14.01,2013-09-26 10:04:00,
2013-09-26 06:09:00,59.2,53.0,29.97,NNE,22,2.7,3.1,80,0.00,,---,0.00,VWS V14.01,2013-09-26 10:09:00,
2013-09-26 06:14:00,59.2,53.0,29.97,NNE,22,2.7,2.7,80,0.00,,---,0.00,VWS V14.01,2013-09-26 10:14:00,
2013-09-26 06:19:00,59.2,53.0,29.97,NE,37,5.8,5.8,80,0.00,,---,0.00,VWS V14.01,2013-09-26 10:19:00,
2013-09-26 06:24:00,59.4,53.2,29.97,NE,34,4.9,4.9,80,0.00,,---,0.00,VWS V14.01,2013-09-26 10:24:00,
2013-09-26 06:29:00,59.2,53.0,29.97,NE,39,3.6,4.0,80,0.00,,---,0.00,VWS V14.01,2013-09-26 10:29:00,
2013-09-26 06:34:00,59.4,53.2,29.97,NE,42,0.0,3.1,80,0.00,,---,0.00,VWS V14.01,2013-09-26 10:34:00,
2013-09-26 06:39:00,59.4,53.2,29.97,NE,41,3.1,3.1,80,0.00,,---,0.00,VWS V14.01,2013-09-26 10:39:00,
2013-09-26 06:44:00,59.5,53.4,29.97,NE,38,0.0,2.7,80,0.00,,---,0.00,VWS V14.01,2013-09-26 10:44:00,
2013-09-26 06:49:00,59.5,53.4,29.97,NE,49,2.7,2.7,80,0.00,,---,0.00,VWS V14.01,2013-09-26 10:49:00,
2013-09-26 06:54:00,59.5,53.4,29.97,NE,42,3.1,3.1,80,0.00,,---,0.00,VWS V14.01,2013-09-26 10:54:00,
2013-09-26 06:59:00,59.5,53.4,29.97,NE,36,3.1,3.6,80,0.00,,---,0.00,VWS V14.01,2013-09-26 10:59:00,
2013-09-26 07:04:00,59.5,53.4,29.97,NE,36,4.0,4.0,80,0.00,,---,0.00,VWS V14.01,2013-09-26 11:04:00,
2013-09-26 07:09:00,59.5,53.4,29.97,NE,55,4.0,4.0,80,0.00,,---,0.00,VWS V14.01,2013-09-26 11:09:00,
2013-09-26 07:14:00,59.7,53.5,29.97,NE,35,3.1,5.4,80,0.00,,---,0.00,VWS V14.01,2013-09-26 11:14:00,
2013-09-26 07:19:00,59.7,53.5,29.97,NNE,30,3.1,5.8,80,0.00,,---,0.00,VWS V14.01,2013-09-26 11:19:00,
2013-09-26 07:24:00,59.9,53.7,29.97,NNE,28,0.0,3.6,80,0.00,,---,0.00,VWS V14.01,2013-09-26 11:24:00,
2013-09-26 07:29:00,59.9,53.4,29.97,NE,39,6.3,6.3,79,0.00,,---,0.00,VWS V14.01,2013-09-26 11:29:00,
2013-09-26 07:34:00,60.1,53.6,30.00,NNE,31,4.9,4.9,79,0.00,,---,0.00,VWS V14.01,2013-09-26 11:34:00,
2013-09-26 07:39:00,60.4,53.9,30.00,North,10,3.6,4.0,79,0.00,,---,0.00,VWS V14.01,2013-09-26 11:39:00,
2013-09-26 07:44:00,60.4,53.9,30.00,NE,53,2.2,3.6,79,0.00,,---,0.00,VWS V14.01,2013-09-26 11:44:00,
2013-09-26 07:49:00,60.6,54.1,30.00,NE,43,4.9,4.9,79,0.00,,---,0.00,VWS V14.01,2013-09-26 11:49:00,
2013-09-26 07:54:00,60.6,54.1,30.00,NE,54,3.1,4.0,79,0.00,,---,0.00,VWS V14.01,2013-09-26 11:54:00,
2013-09-26 07:59:00,61.0,54.1,30.00,NNE,17,5.8,7.6,78,0.00,,---,0.00,VWS V14.01,2013-09-26 11:59:00,
2013-09-26 08:04:00,61.3,54.4,30.00,NNE,21,5.8,6.3,78,0.00,,---,0.00,VWS V14.01,2013-09-26 12:04:00,
2013-09-26 08:09:00,61.5,54.6,30.00,ENE,69,3.1,5.4,78,0.00,,---,0.00,VWS V14.01,2013-09-26 12:09:00,
2013-09-26 08:14:00,61.7,54.4,30.00,NE,35,4.9,7.6,77,0.00,,---,0.00,VWS V14.01,2013-09-26 12:14:00,
2013-09-26 08:19:00,61.9,54.6,30.00,ENE,58,4.0,6.3,77,0.00,,---,0.00,VWS V14.01,2013-09-26 12:19:00,
2013-09-26 08:24:00,62.1,54.4,30.00,NNE,30,4.0,5.8,76,0.00,,---,0.00,VWS V14.01,2013-09-26 12:24:00,
2013-09-26 08:29:00,62.2,54.6,30.00,NNE,25,4.0,4.0,76,0.00,,---,0.00,VWS V14.01,2013-09-26 12:29:00,
2013-09-26 08:34:00,62.6,54.6,30.00,NNE,19,3.1,4.0,75,0.00,,---,0.00,VWS V14.01,2013-09-26 12:34:00,
2013-09-26 08:39:00,62.8,54.4,30.00,NE,43,3.6,6.7,74,0.00,,---,0.00,VWS V14.01,2013-09-26 12:39:00,
2013-09-26 08:44:00,63.1,54.3,30.00,NE,43,0.0,5.8,73,0.00,,---,0.00,VWS V14.01,2013-09-26 12:44:00,
2013-09-26 08:49:00,63.7,54.9,30.00,NE,39,0.0,4.9,73,0.00,,---,0.00,VWS V14.01,2013-09-26 12:49:00,
2013-09-26 08:55:00,63.9,54.7,30.00,NE,54,0.0,5.8,72,0.00,,---,0.00,VWS V14.01,2013-09-26 12:55:00,
2013-09-26 09:00:00,63.9,54.3,30.00,NNE,16,5.8,6.3,71,0.00,,---,0.00,VWS V14.01,2013-09-26 13:00:00,
2013-09-26 09:05:00,63.9,54.3,30.00,ENE,57,3.1,3.1,71,0.00,,---,0.00,VWS V14.01,2013-09-26 13:05:00,
2013-09-26 09:10:00,63.9,53.9,30.00,NE,42,3.6,6.3,70,0.00,,---,0.00,VWS V14.01,2013-09-26 13:10:00,
2013-09-26 09:15:00,64.2,54.2,30.00,NE,44,3.1,5.4,70,0.00,,---,0.00,VWS V14.01,2013-09-26 13:15:00,
2013-09-26 09:20:00,64.4,54.0,30.03,NE,41,4.0,6.3,69,0.00,,---,0.00,VWS V14.01,2013-09-26 13:20:00,
2013-09-26 09:25:00,64.6,54.2,30.03,NE,37,3.6,3.6,69,0.00,,---,0.00,VWS V14.01,2013-09-26 13:25:00,
2013-09-26 09:30:00,64.9,54.5,30.03,NE,35,5.8,5.8,69,0.00,,---,0.00,VWS V14.01,2013-09-26 13:30:00,
2013-09-26 09:35:00,65.1,54.3,30.03,NE,54,5.4,6.3,68,0.00,,---,0.00,VWS V14.01,2013-09-26 13:35:00,
2013-09-26 09:40:00,65.5,54.7,30.03,NE,56,5.8,6.3,68,0.00,,---,0.00,VWS V14.01,2013-09-26 13:40:00,
2013-09-26 09:45:00,66.0,54.8,30.03,NE,49,5.8,6.3,67,0.00,,---,0.00,VWS V14.01,2013-09-26 13:45:00,
2013-09-26 09:50:00,66.4,54.7,30.03,ENE,61,4.0,5.8,66,0.00,,---,0.00,VWS V14.01,2013-09-26 13:50:00,
2013-09-26 09:55:00,66.9,55.2,30.03,ENE,74,2.7,3.6,66,0.00,,---,0.00,VWS V14.01,2013-09-26 13:55:00,
2013-09-26 10:00:00,67.3,55.1,30.03,ENE,60,7.6,7.6,65,0.00,,---,0.00,VWS V14.01,2013-09-26 14:00:00,
2013-09-26 10:05:00,67.5,55.3,30.03,NE,44,5.4,5.4,65,0.00,,---,0.00,VWS V14.01,2013-09-26 14:05:00,
2013-09-26 10:10:00,67.8,55.2,30.03,NE,49,4.9,6.3,64,0.00,,---,0.00,VWS V14.01,2013-09-26 14:10:00,
2013-09-26 10:15:00,68.0,55.0,30.03,NE,51,2.2,5.8,63,0.00,,---,0.00,VWS V14.01,2013-09-26 14:15:00,
2013-09-26 10:20:00,68.4,54.8,30.03,NE,50,6.3,6.3,62,0.00,,---,0.00,VWS V14.01,2013-09-26 14:20:00,
2013-09-26 10:25:00,68.4,54.8,30.03,East,85,6.3,6.7,62,0.00,,---,0.00,VWS V14.01,2013-09-26 14:25:00,
2013-09-26 10:30:00,69.1,55.1,30.03,NNE,15,3.1,3.6,61,0.00,,---,0.00,VWS V14.01,2013-09-26 14:30:00,
2013-09-26 10:35:00,69.4,55.4,30.03,East,82,4.0,4.0,61,0.00,,---,0.00,VWS V14.01,2013-09-26 14:35:00,
2013-09-26 10:40:00,70.0,55.5,30.03,NE,48,3.6,3.6,60,0.00,,---,0.00,VWS V14.01,2013-09-26 14:40:00,
2013-09-26 10:45:00,70.7,55.7,30.03,NNE,27,6.3,6.3,59,0.00,,---,0.00,VWS V14.01,2013-09-26 14:45:00,
2013-09-26 10:50:00,71.1,55.5,30.03,East,99,2.7,2.7,58,0.00,,---,0.00,VWS V14.01,2013-09-26 14:50:00,
2013-09-26 10:55:00,71.2,55.2,30.03,ENE,63,5.8,6.3,57,0.00,,---,0.00,VWS V14.01,2013-09-26 14:55:00,
2013-09-26 11:01:00,71.6,55.1,30.03,NE,55,8.3,8.3,56,0.00,,---,0.00,VWS V14.01,2013-09-26 15:01:00,
2013-09-26 11:06:00,72.0,54.9,30.03,NE,43,5.8,5.8,55,0.00,,---,0.00,VWS V14.01,2013-09-26 15:06:00,
2013-09-26 11:12:00,73.0,55.9,30.03,NNE,32,5.8,5.8,55,0.00,,---,0.00,VWS V14.01,2013-09-26 15:12:00,
2013-09-26 11:18:00,72.9,55.3,30.03,East,96,6.3,7.6,54,0.00,,---,0.00,VWS V14.01,2013-09-26 15:18:00,
2013-09-26 11:23:00,72.1,54.6,30.03,East,85,0.0,5.8,54,0.00,,---,0.00,VWS V14.01,2013-09-26 15:23:00,
2013-09-26 11:28:00,72.0,54.9,30.03,North,4,2.7,7.6,55,0.00,,---,0.00,VWS V14.01,2013-09-26 15:28:00,
2013-09-26 11:33:00,71.8,54.8,30.06,ENE,62,6.3,6.3,55,0.00,,---,0.00,VWS V14.01,2013-09-26 15:33:00,
2013-09-26 11:38:00,72.5,55.4,30.06,East,95,4.0,8.1,55,0.00,,---,0.00,VWS V14.01,2013-09-26 15:38:00,
2013-09-26 11:44:00,72.5,54.9,30.06,NE,56,4.0,5.8,54,0.00,,---,0.00,VWS V14.01,2013-09-26 15:44:00,
2013-09-26 11:49:00,72.3,54.8,30.03,East,84,5.8,6.3,54,0.00,,---,0.00,VWS V14.01,2013-09-26 15:49:00,
2013-09-26 11:55:00,73.0,55.4,30.03,East,87,2.7,7.6,54,0.00,,---,0.00,VWS V14.01,2013-09-26 15:55:00,
2013-09-26 12:00:00,73.2,55.1,30.03,East,85,7.6,7.6,53,0.00,,---,0.00,VWS V14.01,2013-09-26 16:00:00,
2013-09-26 12:05:00,73.6,54.9,30.03,East,89,4.0,5.4,52,0.00,,---,0.00,VWS V14.01,2013-09-26 16:05:00,
2013-09-26 12:10:00,74.3,55.6,30.03,ENE,78,5.4,5.4,52,0.00,,---,0.00,VWS V14.01,2013-09-26 16:10:00,
2013-09-26 12:15:00,75.0,55.7,30.03,ENE,67,5.4,5.8,51,0.00,,---,0.00,VWS V14.01,2013-09-26 16:15:00,
2013-09-26 12:20:00,75.7,55.8,30.03,ENE,76,5.8,5.8,50,0.00,,---,0.00,VWS V14.01,2013-09-26 16:20:00,
2013-09-26 12:25:00,75.9,55.4,30.03,NE,36,4.0,6.3,49,0.00,,---,0.00,VWS V14.01,2013-09-26 16:25:00,
2013-09-26 12:30:00,76.5,55.3,30.03,NE,49,8.7,8.7,48,0.00,,---,0.00,VWS V14.01,2013-09-26 16:30:00,
2013-09-26 12:35:00,76.3,55.2,30.03,ENE,75,3.6,5.4,48,0.00,,---,0.00,VWS V14.01,2013-09-26 16:35:00,
2013-09-26 12:40:00,76.5,55.3,30.03,East,89,4.0,6.3,48,0.00,,---,0.00,VWS V14.01,2013-09-26 16:40:00,
2013-09-26 12:45:00,76.5,54.8,30.06,East,92,5.4,6.3,47,0.00,,---,0.00,VWS V14.01,2013-09-26 16:45:00,
2013-09-26 12:50:00,76.5,54.8,30.06,East,86,4.0,4.5,47,0.00,,---,0.00,VWS V14.01,2013-09-26 16:50:00,
2013-09-26 12:55:00,76.3,54.6,30.06,ENE,69,5.4,8.3,47,0.00,,---,0.00,VWS V14.01,2013-09-26 16:55:00,
2013-09-26 13:00:00,76.6,54.9,30.03,East,99,5.4,7.6,47,0.00,,---,0.00,VWS V14.01,2013-09-26 17:00:00,
2013-09-26 13:06:00,77.2,54.8,30.03,East,90,7.6,8.3,46,0.00,,---,0.00,VWS V14.01,2013-09-26 17:06:00,
2013-09-26 13:11:00,77.7,54.7,30.03,ENE,68,5.4,8.7,45,0.00,,---,0.00,VWS V14.01,2013-09-26 17:11:00,
2013-09-26 13:17:00,79.3,55.6,30.03,ENE,60,4.0,8.1,44,0.00,,---,0.00,VWS V14.01,2013-09-26 17:17:00,
2013-09-26 13:22:00,80.8,56.2,30.03,ENE,60,5.8,8.1,43,0.00,,---,0.00,VWS V14.01,2013-09-26 17:22:00,
2013-09-26 13:27:00,82.0,56.7,30.03,ESE,106,8.1,8.1,42,0.00,,---,0.00,VWS V14.01,2013-09-26 17:27:00,
2013-09-26 13:33:00,83.5,56.6,30.03,ENE,61,5.8,5.8,40,0.00,,---,0.00,VWS V14.01,2013-09-26 17:33:00,
2013-09-26 13:38:00,82.6,55.1,30.03,ENE,59,5.4,8.7,39,0.00,,---,0.00,VWS V14.01,2013-09-26 17:38:00,
2013-09-26 13:43:00,82.6,55.8,30.03,ESE,111,5.4,8.1,40,0.00,,---,0.00,VWS V14.01,2013-09-26 17:43:00,
2013-09-26 13:48:00,83.5,55.9,30.03,East,90,8.1,8.1,39,0.00,,---,0.00,VWS V14.01,2013-09-26 17:48:00,
2013-09-26 13:53:00,83.7,56.1,30.03,ESE,103,5.8,8.1,39,0.00,,---,0.00,VWS V14.01,2013-09-26 17:53:00,
2013-09-26 13:59:00,84.4,55.3,30.03,SE,130,4.0,10.1,37,0.00,,---,0.00,VWS V14.01,2013-09-26 17:59:00,
2013-09-26 14:04:00,84.0,55.0,30.03,ESE,111,5.4,8.1,37,0.00,,---,0.00,VWS V14.01,2013-09-26 18:04:00,
2013-09-26 14:10:00,83.1,54.9,30.03,East,93,8.1,8.1,38,0.00,,---,0.00,VWS V14.01,2013-09-26 18:10:00,
2013-09-26 14:15:00,83.5,55.2,30.03,ESE,103,8.7,9.2,38,0.00,,---,0.00,VWS V14.01,2013-09-26 18:15:00,
2013-09-26 14:21:00,84.6,54.7,30.03,ESE,110,8.1,8.7,36,0.00,,---,0.00,VWS V14.01,2013-09-26 18:21:00,
2013-09-26 14:26:00,85.6,55.7,30.03,ESE,104,6.3,8.1,36,0.00,,---,0.00,VWS V14.01,2013-09-26 18:26:00,
2013-09-26 14:31:00,86.2,55.3,30.03,East,100,4.0,8.1,35,0.00,,---,0.00,VWS V14.01,2013-09-26 18:31:00,
2013-09-26 14:36:00,86.4,54.7,30.03,ESE,108,8.1,8.3,34,0.00,,---,0.00,VWS V14.01,2013-09-26 18:36:00,
2013-09-26 14:41:00,86.9,55.2,30.03,East,97,9.2,9.2,34,0.00,,---,0.00,VWS V14.01,2013-09-26 18:41:00,
2013-09-26 14:46:00,86.5,54.0,30.03,ENE,76,5.4,8.7,33,0.00,,---,0.00,VWS V14.01,2013-09-26 18:46:00,
2013-09-26 14:51:00,86.2,53.7,30.03,ESE,112,5.4,8.3,33,0.00,,---,0.00,VWS V14.01,2013-09-26 18:51:00,
2013-09-26 14:56:00,85.8,53.4,30.03,ESE,105,9.6,9.6,33,0.00,,---,0.00,VWS V14.01,2013-09-26 18:56:00,
2013-09-26 15:01:00,85.3,53.0,30.03,East,95,8.1,9.6,33,0.00,,---,0.00,VWS V14.01,2013-09-26 19:01:00,
2013-09-26 15:06:00,85.3,53.0,30.03,East,90,11.0,11.0,33,0.00,,---,0.00,VWS V14.01,2013-09-26 19:06:00,
2013-09-26 15:11:00,84.7,52.5,30.03,ESE,108,11.0,11.0,33,0.00,,---,0.00,VWS V14.01,2013-09-26 19:11:00,
2013-09-26 15:16:00,84.2,52.8,30.03,East,101,8.3,9.2,34,0.00,,---,0.00,VWS V14.01,2013-09-26 19:16:00,
2013-09-26 15:21:00,82.9,51.7,30.03,ESE,109,11.0,11.0,34,0.00,,---,0.00,VWS V14.01,2013-09-26 19:21:00,
2013-09-26 15:26:00,81.5,51.2,30.03,East,101,8.3,8.3,35,0.00,,---,0.00,VWS V14.01,2013-09-26 19:26:00,
2013-09-26 15:31:00,80.8,51.4,30.03,ESE,119,5.4,9.2,36,0.00,,---,0.00,VWS V14.01,2013-09-26 19:31:00,
2013-09-26 15:36:00,80.1,51.5,30.03,ESE,107,6.3,6.3,37,0.00,,---,0.00,VWS V14.01,2013-09-26 19:36:00,
2013-09-26 15:41:00,79.5,51.7,30.03,East,91,8.7,8.7,38,0.00,,---,0.00,VWS V14.01,2013-09-26 19:41:00,
2013-09-26 15:46:00,79.2,52.1,30.03,East,96,6.3,6.3,39,0.00,,---,0.00,VWS V14.01,2013-09-26 19:46:00,
2013-09-26 15:51:00,79.0,52.6,30.03,ESE,110,5.4,5.4,40,0.00,,---,0.00,VWS V14.01,2013-09-26 19:51:00,
2013-09-26 15:56:00,78.8,52.5,30.03,East,83,8.1,9.2,40,0.00,,---,0.00,VWS V14.01,2013-09-26 19:56:00,
2013-09-26 16:01:00,78.6,52.3,30.03,East,96,8.1,8.7,40,0.00,,---,0.00,VWS V14.01,2013-09-26 20:01:00,
2013-09-26 16:06:00,78.8,52.5,30.03,East,97,5.4,8.1,40,0.00,,---,0.00,VWS V14.01,2013-09-26 20:06:00,
2013-09-26 16:11:00,79.0,52.6,30.03,ESE,106,8.3,8.3,40,0.00,,---,0.00,VWS V14.01,2013-09-26 20:11:00,
2013-09-26 16:16:00,79.7,53.3,30.03,East,88,8.1,8.1,40,0.00,,---,0.00,VWS V14.01,2013-09-26 20:16:00,
2013-09-26 16:21:00,79.9,53.4,30.03,East,100,4.0,5.4,40,0.00,,---,0.00,VWS V14.01,2013-09-26 20:21:00,
2013-09-26 16:26:00,78.4,52.1,30.03,East,89,8.3,8.7,40,0.00,,---,0.00,VWS V14.01,2013-09-26 20:26:00,
2013-09-26 16:31:00,77.5,52.0,30.03,East,96,7.6,7.6,41,0.00,,---,0.00,VWS V14.01,2013-09-26 20:31:00,
2013-09-26 16:36:00,79.2,52.8,30.03,ESE,119,8.1,8.3,40,0.00,,---,0.00,VWS V14.01,2013-09-26 20:36:00,
2013-09-26 16:41:00,81.1,53.9,30.03,East,95,5.4,5.4,39,0.00,,---,0.00,VWS V14.01,2013-09-26 20:41:00,
2013-09-26 16:46:00,82.0,54.0,30.03,East,87,3.6,5.8,38,0.00,,---,0.00,VWS V14.01,2013-09-26 20:46:00,
2013-09-26 16:51:00,82.4,53.5,30.03,ESE,108,10.1,10.1,37,0.00,,---,0.00,VWS V14.01,2013-09-26 20:51:00,
2013-09-26 16:56:00,82.2,53.4,30.03,East,98,7.6,8.7,37,0.00,,---,0.00,VWS V14.01,2013-09-26 20:56:00,
2013-09-26 17:01:00,80.4,51.8,30.03,East,91,8.1,8.1,37,0.00,,---,0.00,VWS V14.01,2013-09-26 21:01:00,
2013-09-26 17:06:00,79.2,52.1,30.03,East,94,6.3,6.3,39,0.00,,---,0.00,VWS V14.01,2013-09-26 21:06:00,
2013-09-26 17:11:00,78.6,52.3,30.03,East,94,5.4,7.6,40,0.00,,---,0.00,VWS V14.01,2013-09-26 21:11:00,
2013-09-26 17:16:00,79.2,52.8,30.03,ESE,105,5.4,5.4,40,0.00,,---,0.00,VWS V14.01,2013-09-26 21:16:00,
2013-09-26 17:21:00,79.9,52.7,30.03,East,97,4.0,5.8,39,0.00,,---,0.00,VWS V14.01,2013-09-26 21:21:00,
2013-09-26 17:26:00,80.6,52.7,30.03,East,88,5.8,7.6,38,0.00,,---,0.00,VWS V14.01,2013-09-26 21:26:00,
2013-09-26 17:31:00,81.3,53.3,30.06,ESE,107,3.1,3.6,38,0.00,,---,0.00,VWS V14.01,2013-09-26 21:31:00,
2013-09-26 17:36:00,81.7,52.9,30.06,East,91,4.9,4.9,37,0.00,,---,0.00,VWS V14.01,2013-09-26 21:36:00,
2013-09-26 17:41:00,81.5,52.7,30.06,ESE,108,2.7,4.0,37,0.00,,---,0.00,VWS V14.01,2013-09-26 21:41:00,
2013-09-26 17:46:00,81.7,52.9,30.06,ESE,108,5.8,5.8,37,0.00,,---,0.00,VWS V14.01,2013-09-26 21:46:00,
2013-09-26 17:51:00,80.8,52.1,30.06,East,96,5.4,5.8,37,0.00,,---,0.00,VWS V14.01,2013-09-26 21:51:00,
2013-09-26 17:56:00,81.5,52.0,30.06,East,95,4.0,4.0,36,0.00,,---,0.00,VWS V14.01,2013-09-26 21:56:00,
2013-09-26 18:01:00,84.6,53.1,30.06,ESE,103,3.1,5.8,34,0.00,,---,0.00,VWS V14.01,2013-09-26 22:01:00,
2013-09-26 18:06:00,84.7,52.5,30.06,East,94,4.0,4.0,33,0.00,,---,0.00,VWS V14.01,2013-09-26 22:06:00,
2013-09-26 18:11:00,82.4,51.2,30.06,ESE,106,5.4,6.3,34,0.00,,---,0.00,VWS V14.01,2013-09-26 22:11:00,
2013-09-26 18:16:00,83.5,52.2,30.03,ENE,76,2.7,3.1,34,0.00,,---,0.00,VWS V14.01,2013-09-26 22:16:00,
2013-09-26 18:21:00,81.0,50.8,30.03,East,96,3.1,3.1,35,0.00,,---,0.00,VWS V14.01,2013-09-26 22:21:00,
2013-09-26 18:26:00,81.0,51.5,30.03,East,83,3.1,4.0,36,0.00,,---,0.00,VWS V14.01,2013-09-26 22:26:00,
2013-09-26 18:31:00,76.5,49.7,30.06,East,95,3.1,5.4,39,0.00,,---,0.00,VWS V14.01,2013-09-26 22:31:00,
2013-09-26 18:36:00,75.0,50.4,30.06,ENE,59,2.7,2.7,42,0.00,,---,0.00,VWS V14.01,2013-09-26 22:36:00,
2013-09-26 18:41:00,73.9,50.1,30.06,East,85,3.1,4.0,43,0.00,,---,0.00,VWS V14.01,2013-09-26 22:41:00,
2013-09-26 18:46:00,73.0,49.9,30.06,East,95,4.9,5.4,44,0.00,,---,0.00,VWS V14.01,2013-09-26 22:46:00,
2013-09-26 18:51:00,72.5,50.0,30.06,East,99,4.0,5.8,45,0.00,,---,0.00,VWS V14.01,2013-09-26 22:51:00,
2013-09-26 18:56:00,71.8,49.9,30.06,East,92,2.7,2.7,46,0.00,,---,0.00,VWS V14.01,2013-09-26 22:56:00,
2013-09-26 19:01:00,71.4,50.7,30.06,ESE,116,2.7,3.6,48,0.00,,---,0.00,VWS V14.01,2013-09-26 23:01:00,
2013-09-26 19:06:00,71.1,50.4,30.06,East,98,2.7,4.0,48,0.00,,---,0.00,VWS V14.01,2013-09-26 23:06:00,
2013-09-26 19:11:00,70.7,50.1,30.06,East,90,4.9,4.9,48,0.00,,---,0.00,VWS V14.01,2013-09-26 23:11:00,
2013-09-26 19:16:00,70.3,50.3,30.06,ENE,60,3.6,3.6,49,0.00,,---,0.00,VWS V14.01,2013-09-26 23:16:00,
2013-09-26 19:21:00,70.2,50.7,30.06,East,93,2.7,3.6,50,0.00,,---,0.00,VWS V14.01,2013-09-26 23:21:00,
2013-09-26 19:26:00,70.0,50.5,30.06,East,83,3.1,4.0,50,0.00,,---,0.00,VWS V14.01,2013-09-26 23:26:00,
2013-09-26 19:31:00,69.8,50.3,30.06,ENE,67,3.1,4.0,50,0.00,,---,0.00,VWS V14.01,2013-09-26 23:31:00,
2013-09-26 19:36:00,69.6,50.7,30.06,East,97,3.1,3.6,51,0.00,,---,0.00,VWS V14.01,2013-09-26 23:36:00,
2013-09-26 19:41:00,69.4,50.5,30.06,ESE,116,3.1,4.5,51,0.00,,---,0.00,VWS V14.01,2013-09-26 23:41:00,
2013-09-26 19:46:00,69.3,50.9,30.06,East,86,4.9,5.8,52,0.00,,---,0.00,VWS V14.01,2013-09-26 23:46:00,
2013-09-26 19:51:00,69.3,50.9,30.06,East,79,3.1,4.0,52,0.00,,---,0.00,VWS V14.01,2013-09-26 23:51:00,
2013-09-26 19:56:00,69.1,51.2,30.06,East,80,3.1,5.8,53,0.00,,---,0.00,VWS V14.01,2013-09-26 23:56:00,
2013-09-26 20:02:00,68.9,51.6,30.09,East,90,7.6,7.6,54,0.00,,---,0.00,VWS V14.01,2013-09-27 00:02:00,
2013-09-26 20:07:00,68.9,52.1,30.09,East,92,8.1,8.1,55,0.00,,---,0.00,VWS V14.01,2013-09-27 00:07:00,
2013-09-26 20:12:00,68.7,51.9,30.09,East,101,4.9,7.6,55,0.00,,---,0.00,VWS V14.01,2013-09-27 00:12:00,
2013-09-26 20:17:00,68.7,52.4,30.09,East,88,5.8,6.3,56,0.00,,---,0.00,VWS V14.01,2013-09-27 00:17:00,
2013-09-26 20:22:00,68.5,52.7,30.09,East,97,5.8,5.8,57,0.00,,---,0.00,VWS V14.01,2013-09-27 00:22:00,
2013-09-26 20:27:00,68.4,52.5,30.09,ESE,102,8.1,8.1,57,0.00,,---,0.00,VWS V14.01,2013-09-27 00:27:00,
2013-09-26 20:32:00,68.2,52.9,30.09,East,100,5.4,6.7,58,0.00,,---,0.00,VWS V14.01,2013-09-27 00:32:00,
2013-09-26 20:37:00,68.2,53.3,30.09,ESE,107,4.9,5.4,59,0.00,,---,0.00,VWS V14.01,2013-09-27 00:37:00,
2013-09-26 20:42:00,68.0,53.2,30.09,East,94,8.1,8.1,59,0.00,,---,0.00,VWS V14.01,2013-09-27 00:42:00,
2013-09-26 20:47:00,68.0,53.6,30.09,East,93,5.4,5.4,60,0.00,,---,0.00,VWS V14.01,2013-09-27 00:47:00,
2013-09-26 20:52:00,67.8,53.4,30.09,ESE,107,7.6,7.6,60,0.00,,---,0.00,VWS V14.01,2013-09-27 00:52:00,
2013-09-26 20:57:00,67.6,53.3,30.09,East,93,5.8,6.3,60,0.00,,---,0.00,VWS V14.01,2013-09-27 00:57:00,
2013-09-26 21:02:00,67.6,53.3,30.09,East,100,3.1,5.8,60,0.00,,---,0.00,VWS V14.01,2013-09-27 01:02:00,
2013-09-26 21:07:00,67.6,53.7,30.09,ESE,115,6.3,6.3,61,0.00,,---,0.00,VWS V14.01,2013-09-27 01:07:00,
2013-09-26 21:12:00,67.6,54.2,30.09,ESE,104,3.6,5.8,62,0.00,,---,0.00,VWS V14.01,2013-09-27 01:12:00,
2013-09-26 21:17:00,67.5,54.0,30.09,East,99,5.4,7.6,62,0.00,,---,0.00,VWS V14.01,2013-09-27 01:17:00,
2013-09-26 21:22:00,67.5,54.4,30.09,SE,125,4.0,4.9,63,0.00,,---,0.00,VWS V14.01,2013-09-27 01:22:00,
2013-09-26 21:27:00,67.3,54.3,30.09,SE,125,4.0,5.8,63,0.00,,---,0.00,VWS V14.01,2013-09-27 01:27:00,
2013-09-26 21:32:00,67.3,54.3,30.09,ESE,102,5.8,6.3,63,0.00,,---,0.00,VWS V14.01,2013-09-27 01:32:00,
2013-09-26 21:37:00,67.1,54.5,30.09,East,100,7.6,7.6,64,0.00,,---,0.00,VWS V14.01,2013-09-27 01:37:00,
2013-09-26 21:42:00,67.1,54.5,30.09,ESE,106,2.7,4.0,64,0.00,,---,0.00,VWS V14.01,2013-09-27 01:42:00,
2013-09-26 21:47:00,66.9,54.4,30.09,ESE,104,4.0,6.3,64,0.00,,---,0.00,VWS V14.01,2013-09-27 01:47:00,
2013-09-26 21:52:00,66.9,54.4,30.09,ESE,118,5.8,5.8,64,0.00,,---,0.00,VWS V14.01,2013-09-27 01:52:00,
2013-09-26 21:57:00,66.7,54.2,30.09,ESE,121,6.3,6.3,64,0.00,,---,0.00,VWS V14.01,2013-09-27 01:57:00,
2013-09-26 22:02:00,66.7,54.6,30.09,ESE,112,6.3,6.3,65,0.00,,---,0.00,VWS V14.01,2013-09-27 02:02:00,
2013-09-26 22:07:00,66.7,54.6,30.09,East,81,3.6,7.6,65,0.00,,---,0.00,VWS V14.01,2013-09-27 02:07:00,
2013-09-26 22:12:00,66.6,54.4,30.09,East,98,3.1,4.0,65,0.00,,---,0.00,VWS V14.01,2013-09-27 02:12:00,
2013-09-26 22:17:00,66.6,54.4,30.09,ESE,110,5.8,8.3,65,0.00,,---,0.00,VWS V14.01,2013-09-27 02:17:00,
2013-09-26 22:22:00,66.6,54.4,30.09,ESE,105,4.9,6.3,65,0.00,,---,0.00,VWS V14.01,2013-09-27 02:22:00,
2013-09-26 22:27:00,66.4,54.3,30.09,East,95,5.4,6.3,65,0.00,,---,0.00,VWS V14.01,2013-09-27 02:27:00,
2013-09-26 22:32:00,66.4,54.3,30.09,ESE,123,5.4,5.8,65,0.00,,---,0.00,VWS V14.01,2013-09-27 02:32:00,
2013-09-26 22:37:00,66.2,54.1,30.09,ESE,102,5.8,7.6,65,0.00,,---,0.00,VWS V14.01,2013-09-27 02:37:00,
2013-09-26 22:42:00,66.2,54.5,30.09,ESE,105,6.7,6.7,66,0.00,,---,0.00,VWS V14.01,2013-09-27 02:42:00,
2013-09-26 22:48:00,66.2,54.1,30.12,East,97,4.0,5.8,65,0.00,,---,0.00,VWS V14.01,2013-09-27 02:48:00,
2013-09-26 22:53:00,66.0,54.3,30.12,ESE,114,6.3,7.6,66,0.00,,---,0.00,VWS V14.01,2013-09-27 02:53:00,
2013-09-26 22:58:00,66.0,54.3,30.12,ESE,115,4.0,5.8,66,0.00,,---,0.00,VWS V14.01,2013-09-27 02:58:00,
2013-09-26 23:03:00,66.0,54.3,30.12,East,92,8.7,8.7,66,0.00,,---,0.00,VWS V14.01,2013-09-27 03:03:00,
2013-09-26 23:08:00,65.8,54.2,30.12,ESE,123,5.4,6.3,66,0.00,,---,0.00,VWS V14.01,2013-09-27 03:08:00,
2013-09-26 23:13:00,65.8,54.2,30.12,East,83,8.3,9.2,66,0.00,,---,0.00,VWS V14.01,2013-09-27 03:13:00,
2013-09-26 23:18:00,65.8,54.2,30.12,East,86,4.0,5.8,66,0.00,,---,0.00,VWS V14.01,2013-09-27 03:18:00,
2013-09-26 23:23:00,65.8,54.2,30.12,ESE,117,6.3,10.1,66,0.00,,---,0.00,VWS V14.01,2013-09-27 03:23:00,
2013-09-26 23:28:00,65.7,54.4,30.12,East,91,8.1,8.3,67,0.00,,---,0.00,VWS V14.01,2013-09-27 03:28:00,
2013-09-26 23:33:00,65.7,54.4,30.12,ESE,115,4.9,6.3,67,0.00,,---,0.00,VWS V14.01,2013-09-27 03:33:00,
2013-09-26 23:38:00,65.7,54.4,30.12,ESE,109,6.3,6.3,67,0.00,,---,0.00,VWS V14.01,2013-09-27 03:38:00,
2013-09-26 23:43:00,65.7,54.4,30.12,ESE,108,3.6,3.6,67,0.00,,---,0.00,VWS V14.01,2013-09-27 03:43:00,
2013-09-26 23:48:00,65.5,54.2,30.12,ESE,119,6.3,7.6,67,0.00,,---,0.00,VWS V14.01,2013-09-27 03:48:00,
2013-09-26 23:53:00,65.5,54.2,30.12,ESE,120,5.8,6.3,67,0.00,,---,0.00,VWS V14.01,2013-09-27 03:53:00,
2013-09-26 23:58:00,65.5,54.2,30.12,ESE,110,4.0,7.6,67,0.00,,---,0.00,VWS V14.01,2013-09-27 03:58:00,